createdAt,value
2022-08-10T00:00:34.653Z,100656.61
2022-08-10T00:01:38.579Z,100661.00
2022-08-10T00:02:41.620Z,100649.40
2022-08-10T00:03:44.113Z,100647.09
2022-08-10T00:04:46.659Z,100646.59
2022-08-10T00:05:53.181Z,100647.73
2022-08-10T00:06:54.921Z,100647.72
2022-08-10T00:07:57.697Z,100646.97
2022-08-10T00:09:00.111Z,100651.48
2022-08-10T00:10:03.996Z,100653.67
2022-08-10T00:11:07.306Z,100653.67
2022-08-10T00:12:11.476Z,100648.19
2022-08-10T00:13:13.872Z,100655.41
2022-08-10T00:14:16.417Z,100653.70
2022-08-10T00:15:52.301Z,100657.09
2022-08-10T00:16:25.698Z,100662.46
2022-08-10T00:17:28.233Z,100659.03
2022-08-10T00:18:35.353Z,100653.30
2022-08-10T00:20:03.395Z,100654.02
2022-08-10T00:20:41.561Z,100654.14
2022-08-10T00:21:45.319Z,100652.45
2022-08-10T00:22:48.852Z,100640.52
2022-08-10T00:23:52.308Z,100646.13
2022-08-10T00:24:54.746Z,100642.10
2022-08-10T00:25:57.131Z,100640.16
2022-08-10T00:27:52.278Z,100617.39
2022-08-10T00:28:04.432Z,100639.92
2022-08-10T00:29:08.354Z,100642.62
2022-08-10T00:30:12.425Z,100637.61
2022-08-10T00:31:14.780Z,100635.89
2022-08-10T00:32:17.157Z,100638.20
2022-08-10T00:33:19.621Z,100633.80
2022-08-10T00:34:21.969Z,100632.47
2022-08-10T00:35:24.387Z,100636.61
2022-08-10T00:36:27.029Z,100638.64
2022-08-10T00:37:31.246Z,100640.39
2022-08-10T00:38:33.546Z,100640.27
2022-08-10T00:39:39.638Z,100643.09
2022-08-10T00:40:41.892Z,100646.97
2022-08-10T00:41:44.434Z,100643.22
2022-08-10T00:42:46.680Z,100646.86
2022-08-10T00:43:49.094Z,100647.36
2022-08-10T00:44:51.401Z,100641.64
2022-08-10T00:45:58.599Z,100644.56
2022-08-10T00:46:58.352Z,100642.89
2022-08-10T00:48:01.350Z,100643.48
2022-08-10T00:49:03.846Z,100651.17
2022-08-10T00:50:07.624Z,100647.49
2022-08-10T00:51:11.092Z,100644.55
2022-08-10T00:52:14.825Z,100639.47
2022-08-10T00:53:17.358Z,100644.22
2022-08-10T00:54:24.163Z,100639.81
2022-08-10T00:55:24.420Z,100641.05
2022-08-10T00:56:41.668Z,100638.10
2022-08-10T00:57:33.878Z,100642.77
2022-08-10T00:58:38.021Z,100640.06
2022-08-10T00:59:57.627Z,100635.66
2022-08-10T01:00:47.304Z,100635.89
2022-08-10T01:02:09.376Z,100629.56
2022-08-10T01:02:54.038Z,100635.64
2022-08-10T01:04:39.996Z,100628.84
2022-08-10T01:05:09.776Z,100641.40
2022-08-10T01:06:28.064Z,100639.19
2022-08-10T01:09:11.706Z,100630.03
2022-08-10T01:10:43.577Z,100637.88
2022-08-10T01:12:39.510Z,100632.37
2022-08-10T01:13:12.682Z,100638.34
2022-08-10T01:14:31.377Z,100639.33
2022-08-10T01:15:40.414Z,100635.92
2022-08-10T01:16:52.597Z,100630.45
2022-08-10T01:18:10.823Z,100641.02
2022-08-10T01:19:22.859Z,100636.77
2022-08-10T01:20:44.051Z,100632.02
2022-08-10T01:21:57.111Z,100641.74
2022-08-10T01:23:24.698Z,100635.66
2022-08-10T01:24:48.714Z,100642.28
2022-08-10T01:26:11.743Z,100623.63
2022-08-10T01:27:17.273Z,100638.48
2022-08-10T01:28:55.142Z,100633.97
2022-08-10T01:30:09.319Z,100637.52
2022-08-10T01:31:15.383Z,100635.79
2022-08-10T01:32:21.272Z,100638.84
2022-08-10T01:33:31.790Z,100641.40
2022-08-10T01:34:38.103Z,100644.83
2022-08-10T01:36:02.604Z,100639.33
2022-08-10T01:37:08.757Z,100636.65
2022-08-10T01:38:20.382Z,100634.70
2022-08-10T01:39:26.331Z,100635.19
2022-08-10T01:40:31.883Z,100636.38
2022-08-10T01:41:46.098Z,100637.64
2022-08-10T01:42:47.496Z,100633.70
2022-08-10T01:44:05.523Z,100644.06
2022-08-10T01:45:10.653Z,100636.16
2022-08-10T01:46:14.967Z,100634.71
2022-08-10T01:47:22.255Z,100638.59
2022-08-10T01:49:37.198Z,100626.39
2022-08-10T01:50:59.252Z,100635.43
2022-08-10T01:51:53.840Z,100624.83
2022-08-10T01:52:59.960Z,100632.27
2022-08-10T01:54:12.771Z,100625.91
2022-08-10T01:55:14.896Z,100626.02
2022-08-10T01:56:20.190Z,100623.98
2022-08-10T01:57:24.814Z,100628.47
2022-08-10T01:58:29.774Z,100635.42
2022-08-10T01:59:37.502Z,100629.19
2022-08-10T02:00:42.701Z,100627.25
2022-08-10T02:01:51.504Z,100627.63
2022-08-10T02:02:56.014Z,100625.42
2022-08-10T02:04:04.796Z,100626.38
2022-08-10T02:05:08.293Z,100630.77
2022-08-10T02:06:14.158Z,100610.42
2022-08-10T02:07:25.679Z,100621.91
2022-08-10T02:08:30.167Z,100619.94
2022-08-10T02:09:36.042Z,100627.13
2022-08-10T02:10:43.099Z,100628.70
2022-08-10T02:12:06.755Z,100626.89
2022-08-10T02:12:51.520Z,100631.73
2022-08-10T02:13:55.702Z,100631.38
2022-08-10T02:15:07.792Z,100634.66
2022-08-10T02:16:12.733Z,100626.84
2022-08-10T02:17:58.056Z,100637.17
2022-08-10T02:18:24.464Z,100640.22
2022-08-10T02:19:29.408Z,100635.74
2022-08-10T02:20:38.162Z,100632.08
2022-08-10T02:22:34.766Z,100635.62
2022-08-10T02:22:54.016Z,100637.95
2022-08-10T02:23:59.706Z,100643.09
2022-08-10T02:25:05.298Z,100635.88
2022-08-10T02:26:10.563Z,100649.03
2022-08-10T02:27:14.934Z,100639.66
2022-08-10T02:28:27.512Z,100639.23
2022-08-10T02:29:27.810Z,100638.06
2022-08-10T02:30:31.916Z,100644.62
2022-08-10T02:31:35.851Z,100626.81
2022-08-10T02:32:38.980Z,100610.52
2022-08-10T02:33:56.484Z,100629.72
2022-08-10T02:34:50.727Z,100631.70
2022-08-10T02:35:55.995Z,100623.64
2022-08-10T02:37:02.301Z,100626.58
2022-08-10T02:38:09.186Z,100620.97
2022-08-10T02:39:13.034Z,100624.37
2022-08-10T02:45:01.997Z,100629.23
2022-08-10T02:45:13.002Z,100631.84
2022-08-10T02:45:17.698Z,100636.77
2022-08-10T02:45:20.720Z,100633.78
2022-08-10T02:45:22.578Z,100633.67
2022-08-10T02:46:18.219Z,100635.62
2022-08-10T02:47:52.263Z,100633.78
2022-08-10T02:49:04.150Z,100633.36
2022-08-10T02:50:13.385Z,100632.83
2022-08-10T02:52:07.476Z,100631.41
2022-08-10T02:53:56.133Z,100631.17
2022-08-10T02:54:57.792Z,100638.37
2022-08-10T02:56:11.703Z,100629.73
2022-08-10T02:57:20.308Z,100634.25
2022-08-10T02:58:35.281Z,100633.05
2022-08-10T02:59:43.847Z,100632.89
2022-08-10T03:00:49.882Z,100635.05
2022-08-10T03:01:55.982Z,100625.33
2022-08-10T03:03:00.324Z,100637.72
2022-08-10T03:04:08.641Z,100640.81
2022-08-10T03:05:13.583Z,100646.44
2022-08-10T03:06:20.051Z,100647.05
2022-08-10T03:07:44.236Z,100661.05
2022-08-10T03:08:32.870Z,100664.83
2022-08-10T03:10:50.067Z,100649.95
2022-08-10T03:12:36.177Z,100661.99
2022-08-10T03:14:15.117Z,100639.70
2022-08-10T03:15:20.063Z,100646.20
2022-08-10T03:16:25.800Z,100642.03
2022-08-10T03:17:32.581Z,100645.29
2022-08-10T03:18:36.902Z,100646.39
2022-08-10T03:20:34.082Z,100645.75
2022-08-10T03:20:47.457Z,100650.26
2022-08-10T03:21:52.429Z,100651.27
2022-08-10T03:22:55.979Z,100652.70
2022-08-10T03:23:59.790Z,100654.83
2022-08-10T03:25:02.841Z,100655.16
2022-08-10T03:26:06.869Z,100649.25
2022-08-10T03:27:10.885Z,100655.33
2022-08-10T03:28:18.221Z,100652.09
2022-08-10T03:29:21.274Z,100655.94
2022-08-10T03:30:32.165Z,100656.34
2022-08-10T03:31:30.227Z,100656.67
2022-08-10T03:32:33.822Z,100653.43
2022-08-10T03:33:40.026Z,100648.35
2022-08-10T03:34:42.769Z,100650.91
2022-08-10T03:36:40.341Z,100651.63
2022-08-10T03:36:49.699Z,100646.57
2022-08-10T03:37:52.108Z,100649.02
2022-08-10T03:38:56.798Z,100648.58
2022-08-10T03:39:59.200Z,100647.73
2022-08-10T03:41:04.546Z,100633.86
2022-08-10T03:42:09.909Z,100647.89
2022-08-10T03:43:18.038Z,100643.95
2022-08-10T03:44:23.178Z,100653.32
2022-08-10T03:45:27.781Z,100651.33
2022-08-10T03:46:37.269Z,100655.66
2022-08-10T03:47:42.368Z,100657.94
2022-08-10T03:48:49.724Z,100658.00
2022-08-10T03:49:55.408Z,100658.10
2022-08-10T03:50:59.466Z,100658.05
2022-08-10T03:52:02.139Z,100657.76
2022-08-10T03:53:04.696Z,100663.22
2022-08-10T03:54:08.063Z,100665.02
2022-08-10T03:55:11.116Z,100665.74
2022-08-10T03:56:28.982Z,100664.41
2022-08-10T03:57:21.427Z,100674.38
2022-08-10T03:58:24.012Z,100672.66
2022-08-10T03:59:26.314Z,100675.83
2022-08-10T04:00:31.819Z,100679.45
2022-08-10T04:02:43.205Z,100676.55
2022-08-10T04:02:52.768Z,100669.76
2022-08-10T04:03:44.930Z,100665.13
2022-08-10T04:04:47.330Z,100662.60
2022-08-10T04:05:49.704Z,100666.59
2022-08-10T04:06:54.285Z,100666.74
2022-08-10T04:07:59.011Z,100667.73
2022-08-10T04:09:01.910Z,100662.88
2022-08-10T04:10:06.172Z,100669.26
2022-08-10T04:11:11.462Z,100662.72
2022-08-10T04:12:14.550Z,100663.72
2022-08-10T04:13:17.156Z,100672.74
2022-08-10T04:14:35.609Z,100647.89
2022-08-10T04:15:23.893Z,100669.72
2022-08-10T04:16:28.545Z,100666.59
2022-08-10T04:18:04.906Z,100662.45
2022-08-10T04:18:35.268Z,100659.17
2022-08-10T04:19:41.101Z,100670.41
2022-08-10T04:22:15.144Z,100653.26
2022-08-10T04:23:26.923Z,100657.83
2022-08-10T04:24:33.037Z,100658.33
2022-08-10T04:25:37.942Z,100654.34
2022-08-10T04:26:41.167Z,100647.73
2022-08-10T04:27:44.553Z,100648.64
2022-08-10T04:28:47.624Z,100641.33
2022-08-10T04:29:49.887Z,100646.69
2022-08-10T04:30:54.023Z,100642.15
2022-08-10T04:31:56.317Z,100636.77
2022-08-10T04:33:01.576Z,100639.00
2022-08-10T04:34:08.868Z,100636.59
2022-08-10T04:35:11.428Z,100633.88
2022-08-10T04:36:16.366Z,100633.09
2022-08-10T04:37:20.594Z,100634.92
2022-08-10T04:38:25.720Z,100641.50
2022-08-10T04:39:28.698Z,100645.03
2022-08-10T04:40:31.468Z,100647.09
2022-08-10T04:41:34.277Z,100649.78
2022-08-10T04:42:37.686Z,100654.78
2022-08-10T04:43:40.264Z,100650.39
2022-08-10T04:44:42.962Z,100651.98
2022-08-10T04:45:47.715Z,100655.90
2022-08-10T04:46:55.711Z,100663.31
2022-08-10T04:48:00.292Z,100659.55
2022-08-10T04:49:01.546Z,100661.23
2022-08-10T04:50:04.282Z,100664.90
2022-08-10T04:51:08.110Z,100661.34
2022-08-10T04:52:12.502Z,100659.06
2022-08-10T04:53:14.949Z,100663.80
2022-08-10T04:54:17.358Z,100658.31
2022-08-10T04:55:20.369Z,100653.83
2022-08-10T04:56:31.789Z,100662.86
2022-08-10T04:57:28.023Z,100663.73
2022-08-10T04:58:30.542Z,100662.00
2022-08-10T04:59:32.995Z,100662.98
2022-08-10T05:00:38.343Z,100663.73
2022-08-10T05:02:28.776Z,100661.75
2022-08-10T05:02:45.712Z,100670.63
2022-08-10T05:04:35.055Z,100668.31
2022-08-10T05:04:52.481Z,100662.98
2022-08-10T05:05:54.648Z,100667.23
2022-08-10T05:06:59.757Z,100668.27
2022-08-10T05:08:02.228Z,100664.63
2022-08-10T05:09:04.598Z,100654.08
2022-08-10T05:10:11.598Z,100654.08
2022-08-10T05:11:12.392Z,100662.91
2022-08-10T05:12:17.139Z,100668.30
2022-08-10T05:13:19.472Z,100657.59
2022-08-10T05:14:22.040Z,100671.20
2022-08-10T05:15:24.474Z,100657.79
2022-08-10T05:16:31.856Z,100658.70
2022-08-10T05:17:34.104Z,100664.16
2022-08-10T05:18:36.722Z,100656.11
2022-08-10T05:20:03.841Z,100654.83
2022-08-10T05:20:46.195Z,100655.33
2022-08-10T05:21:56.391Z,100653.66
2022-08-10T05:22:52.147Z,100656.88
2022-08-10T05:23:54.564Z,100666.73
2022-08-10T05:24:56.785Z,100663.87
2022-08-10T05:25:58.978Z,100663.80
2022-08-10T05:27:10.231Z,100664.39
2022-08-10T05:28:06.975Z,100663.21
2022-08-10T05:29:09.543Z,100658.07
2022-08-10T05:30:15.872Z,100661.91
2022-08-10T05:31:22.465Z,100653.14
2022-08-10T05:32:22.466Z,100660.97
2022-08-10T05:33:24.821Z,100651.68
2022-08-10T05:34:27.600Z,100649.05
2022-08-10T05:35:56.438Z,100650.25
2022-08-10T05:36:36.011Z,100650.37
2022-08-10T05:38:08.938Z,100650.05
2022-08-10T05:38:46.224Z,100644.05
2022-08-10T05:39:49.693Z,100649.41
2022-08-10T05:40:53.652Z,100655.28
2022-08-10T05:41:57.988Z,100599.86
2022-08-10T05:43:03.081Z,100650.15
2022-08-10T05:44:05.653Z,100649.02
2022-08-10T05:46:24.415Z,100648.80
2022-08-10T05:47:27.121Z,100643.94
2022-08-10T05:48:54.320Z,100654.58
2022-08-10T05:49:39.293Z,100657.36
2022-08-10T05:50:42.200Z,100651.11
2022-08-10T05:51:44.890Z,100660.50
2022-08-10T05:52:47.557Z,100662.22
2022-08-10T05:54:00.910Z,100649.30
2022-08-10T05:54:55.540Z,100666.94
2022-08-10T05:55:59.342Z,100666.78
2022-08-10T05:57:01.930Z,100666.44
2022-08-10T05:58:04.812Z,100669.73
2022-08-10T05:59:09.345Z,100667.68
2022-08-10T06:00:36.906Z,100663.38
2022-08-10T06:01:23.469Z,100666.65
2022-08-10T06:02:35.778Z,100666.02
2022-08-10T06:03:51.195Z,100662.34
2022-08-10T06:04:59.779Z,100661.06
2022-08-10T06:06:05.570Z,100662.78
2022-08-10T06:07:10.655Z,100665.45
2022-08-10T06:08:21.190Z,100673.50
2022-08-10T06:09:25.594Z,100671.98
2022-08-10T06:10:32.000Z,100675.52
2022-08-10T06:12:27.062Z,100668.08
2022-08-10T06:12:54.457Z,100673.84
2022-08-10T06:13:59.722Z,100675.06
2022-08-10T06:14:59.869Z,100682.03
2022-08-10T06:16:02.978Z,100681.70
2022-08-10T06:17:06.852Z,100680.78
2022-08-10T06:18:09.225Z,100679.44
2022-08-10T06:19:14.805Z,100676.92
2022-08-10T06:20:19.217Z,100679.00
2022-08-10T06:21:22.740Z,100676.39
2022-08-10T06:22:29.601Z,100679.91
2022-08-10T06:23:33.059Z,100681.06
2022-08-10T06:24:50.978Z,100682.86
2022-08-10T06:26:09.708Z,100677.30
2022-08-10T06:26:45.687Z,100657.53
2022-08-10T06:27:48.733Z,100672.76
2022-08-10T06:29:03.673Z,100663.98
2022-08-10T06:30:20.444Z,100663.21
2022-08-10T06:31:15.103Z,100669.12
2022-08-10T06:32:19.694Z,100662.41
2022-08-10T06:33:25.971Z,100655.20
2022-08-10T06:34:43.818Z,100661.88
2022-08-10T06:35:54.605Z,100654.71
2022-08-10T06:36:59.788Z,100657.34
2022-08-10T06:38:05.009Z,100660.23
2022-08-10T06:39:31.845Z,100660.92
2022-08-10T06:40:13.258Z,100663.42
2022-08-10T06:41:22.357Z,100670.89
2022-08-10T06:42:32.723Z,100667.56
2022-08-10T06:43:38.081Z,100671.67
2022-08-10T06:44:46.890Z,100673.45
2022-08-10T06:46:07.734Z,100675.64
2022-08-10T06:47:08.775Z,100670.38
2022-08-10T06:48:16.353Z,100675.55
2022-08-10T06:49:21.709Z,100670.83
2022-08-10T06:50:34.436Z,100674.48
2022-08-10T06:51:41.617Z,100684.00
2022-08-10T06:52:46.267Z,100680.12
2022-08-10T06:53:53.997Z,100681.90
2022-08-10T06:54:59.626Z,100680.67
2022-08-10T06:56:12.911Z,100675.15
2022-08-10T06:57:18.208Z,100670.27
2022-08-10T06:58:26.592Z,100668.60
2022-08-10T06:59:45.448Z,100668.60
2022-08-10T07:00:51.847Z,100663.63
2022-08-10T07:02:03.637Z,100669.88
2022-08-10T07:03:11.083Z,100663.84
2022-08-10T07:04:16.937Z,100664.77
2022-08-10T07:06:36.765Z,100660.87
2022-08-10T07:07:42.195Z,100674.24
2022-08-10T07:08:45.504Z,100671.63
2022-08-10T07:09:50.688Z,100677.76
2022-08-10T07:10:53.813Z,100674.51
2022-08-10T07:12:08.552Z,100674.98
2022-08-10T07:13:04.835Z,100674.89
2022-08-10T07:14:15.664Z,100679.84
2022-08-10T07:15:15.028Z,100673.58
2022-08-10T07:16:19.149Z,100672.00
2022-08-10T07:17:23.934Z,100683.43
2022-08-10T07:18:27.895Z,100686.58
2022-08-10T07:19:32.970Z,100686.83
2022-08-10T07:20:35.550Z,100677.41
2022-08-10T07:21:40.835Z,100679.91
2022-08-10T07:23:01.503Z,100674.56
2022-08-10T07:23:57.699Z,100680.52
2022-08-10T07:24:57.897Z,100674.29
2022-08-10T07:26:02.842Z,100682.73
2022-08-10T07:27:08.338Z,100681.35
2022-08-10T07:28:12.940Z,100676.81
2022-08-10T07:29:53.905Z,100679.30
2022-08-10T07:30:25.503Z,100678.05
2022-08-10T07:31:55.099Z,100679.91
2022-08-10T07:32:35.808Z,100683.22
2022-08-10T07:33:41.061Z,100683.76
2022-08-10T07:34:45.298Z,100681.42
2022-08-10T07:35:49.028Z,100685.00
2022-08-10T07:36:52.903Z,100684.19
2022-08-10T07:37:57.676Z,100679.17
2022-08-10T07:39:01.482Z,100680.53
2022-08-10T07:40:05.601Z,100676.97
2022-08-10T07:41:09.195Z,100675.42
2022-08-10T07:42:13.648Z,100672.16
2022-08-10T07:43:18.361Z,100681.16
2022-08-10T07:44:23.586Z,100672.52
2022-08-10T07:45:29.673Z,100673.58
2022-08-10T07:46:35.441Z,100672.55
2022-08-10T07:47:46.338Z,100664.67
2022-08-10T07:48:49.253Z,100663.02
2022-08-10T07:49:53.932Z,100665.45
2022-08-10T07:50:59.684Z,100663.61
2022-08-10T07:52:05.799Z,100666.28
2022-08-10T07:53:11.582Z,100661.44
2022-08-10T07:54:14.388Z,100664.07
2022-08-10T07:55:19.601Z,100657.25
2022-08-10T07:56:47.915Z,100659.73
2022-08-10T07:57:38.207Z,100662.66
2022-08-10T07:58:46.310Z,100654.75
2022-08-10T07:59:53.517Z,100654.70
2022-08-10T08:00:57.803Z,100657.28
2022-08-10T08:02:01.292Z,100655.43
2022-08-10T08:03:04.569Z,100642.80
2022-08-10T08:04:11.726Z,100652.91
2022-08-10T08:05:54.926Z,100659.41
2022-08-10T08:06:20.840Z,100609.92
2022-08-10T08:07:23.480Z,100656.27
2022-08-10T08:08:28.282Z,100665.78
2022-08-10T08:09:32.867Z,100662.25
2022-08-10T08:10:37.562Z,100652.03
2022-08-10T08:11:43.455Z,100658.31
2022-08-10T08:12:46.257Z,100652.55
2022-08-10T08:13:51.613Z,100656.92
2022-08-10T08:14:59.213Z,100653.84
2022-08-10T08:16:21.363Z,100654.72
2022-08-10T08:17:12.504Z,100663.63
2022-08-10T08:18:24.853Z,100669.67
2022-08-10T08:19:28.495Z,100669.27
2022-08-10T08:20:33.485Z,100666.02
2022-08-10T08:24:04.728Z,100666.11
2022-08-10T08:24:06.550Z,100667.63
2022-08-10T08:24:10.168Z,100673.94
2022-08-10T08:24:54.674Z,100669.78
2022-08-10T08:26:00.373Z,100665.27
2022-08-10T08:27:06.315Z,100667.60
2022-08-10T08:28:10.707Z,100662.36
2022-08-10T08:29:14.037Z,100667.80
2022-08-10T08:30:16.815Z,100670.39
2022-08-10T08:31:24.572Z,100669.86
2022-08-10T08:32:29.740Z,100674.13
2022-08-10T08:33:41.169Z,100672.95
2022-08-10T08:34:42.750Z,100651.93
2022-08-10T08:35:49.236Z,100674.23
2022-08-10T08:36:59.346Z,100662.17
2022-08-10T08:38:31.827Z,100668.09
2022-08-10T08:39:05.706Z,100659.02
2022-08-10T08:40:11.911Z,100664.27
2022-08-10T08:41:45.249Z,100667.53
2022-08-10T08:43:02.805Z,100670.10
2022-08-10T08:44:24.062Z,100659.08
2022-08-10T08:45:50.961Z,100665.62
2022-08-10T08:46:59.228Z,100667.36
2022-08-10T08:48:12.346Z,100629.89
2022-08-10T08:50:04.930Z,100670.58
2022-08-10T08:50:45.652Z,100673.09
2022-08-10T08:52:18.181Z,100657.70
2022-08-10T08:54:01.582Z,100670.78
2022-08-10T08:54:37.433Z,100670.39
2022-08-10T08:56:06.939Z,100666.00
2022-08-10T08:57:49.339Z,100665.34
2022-08-10T08:58:52.018Z,100662.78
2022-08-10T09:00:06.846Z,100658.67
2022-08-10T09:01:46.873Z,100655.72
2022-08-10T09:03:15.588Z,100658.53
2022-08-10T09:04:43.153Z,100655.05
2022-08-10T09:07:59.672Z,100659.13
2022-08-10T09:08:57.006Z,100664.84
2022-08-10T09:10:05.833Z,100667.52
2022-08-10T09:11:21.006Z,100665.36
2022-08-10T09:12:45.314Z,100664.25
2022-08-10T09:14:08.252Z,100662.83
2022-08-10T09:15:41.488Z,100673.03
2022-08-10T09:16:56.643Z,100669.34
2022-08-10T09:18:14.737Z,100668.72
2022-08-10T09:19:36.324Z,100662.66
2022-08-10T09:20:46.340Z,100668.09
2022-08-10T09:22:13.453Z,100662.52
2022-08-10T09:24:34.445Z,100646.13
2022-08-10T09:25:39.505Z,100654.97
2022-08-10T09:26:51.871Z,100649.82
2022-08-10T09:27:57.800Z,100650.28
2022-08-10T09:29:12.491Z,100645.59
2022-08-10T09:30:08.760Z,100652.83
2022-08-10T09:31:22.407Z,100650.69
2022-08-10T09:36:13.511Z,100652.83
2022-08-10T09:36:22.448Z,100652.54
2022-08-10T09:36:27.870Z,100653.01
2022-08-10T09:36:46.112Z,100648.69
2022-08-10T09:38:04.345Z,100654.37
2022-08-10T09:40:12.596Z,100655.22
2022-08-10T09:41:01.267Z,100646.77
2022-08-10T09:42:05.270Z,100652.75
2022-08-10T09:43:25.478Z,100654.22
2022-08-10T09:44:57.407Z,100644.85
2022-08-10T09:46:11.918Z,100641.31
2022-08-10T09:47:58.698Z,100652.95
2022-08-10T09:48:44.793Z,100645.73
2022-08-10T09:49:55.761Z,100644.85
2022-08-10T09:51:44.734Z,100639.81
2022-08-10T09:52:38.236Z,100648.09
2022-08-10T09:54:02.274Z,100643.28
2022-08-10T09:56:17.139Z,100640.92
2022-08-10T09:57:24.553Z,100638.16
2022-08-10T09:58:24.554Z,100641.03
2022-08-10T10:00:00.337Z,100634.41
2022-08-10T10:01:22.362Z,100642.94
2022-08-10T10:02:36.496Z,100641.80
2022-08-10T10:03:48.610Z,100644.58
2022-08-10T10:06:56.836Z,100646.32
2022-08-10T10:08:15.494Z,100640.23
2022-08-10T10:09:26.670Z,100640.77
2022-08-10T10:11:00.452Z,100636.87
2022-08-10T10:12:23.085Z,100636.15
2022-08-10T10:14:03.069Z,100630.30
2022-08-10T10:15:24.153Z,100636.00
2022-08-10T10:16:47.786Z,100631.67
2022-08-10T10:18:22.259Z,100638.88
2022-08-10T10:19:46.330Z,100637.11
2022-08-10T10:20:55.529Z,100630.00
2022-08-10T10:22:18.248Z,100625.73
2022-08-10T10:23:41.296Z,100637.69
2022-08-10T10:25:19.727Z,100638.73
2022-08-10T10:26:22.954Z,100629.50
2022-08-10T10:28:02.873Z,100628.04
2022-08-10T10:29:56.748Z,100632.84
2022-08-10T10:30:58.043Z,100635.78
2022-08-10T10:32:09.957Z,100636.77
2022-08-10T10:33:15.681Z,100635.64
2022-08-10T10:34:27.649Z,100635.98
2022-08-10T10:35:36.701Z,100628.38
2022-08-10T10:36:41.881Z,100631.53
2022-08-10T10:38:02.512Z,100632.30
2022-08-10T10:38:53.369Z,100632.80
2022-08-10T10:39:57.716Z,100627.94
2022-08-10T10:41:23.466Z,100628.14
2022-08-10T10:42:50.462Z,100631.08
2022-08-10T10:44:05.572Z,100623.89
2022-08-10T10:45:17.192Z,100624.20
2022-08-10T10:46:43.430Z,100621.85
2022-08-10T10:48:07.749Z,100618.34
2022-08-10T10:49:30.578Z,100623.66
2022-08-10T10:50:42.737Z,100624.10
2022-08-10T10:51:55.115Z,100621.25
2022-08-10T10:53:12.377Z,100630.94
2022-08-10T10:54:28.428Z,100629.77
2022-08-10T10:56:15.396Z,100629.66
2022-08-10T10:57:03.296Z,100625.66
2022-08-10T10:58:24.243Z,100627.75
2022-08-10T11:00:05.851Z,100626.42
2022-08-10T11:01:14.945Z,100626.50
2022-08-10T11:02:33.095Z,100628.36
2022-08-10T11:03:54.499Z,100622.37
2022-08-10T11:05:12.703Z,100617.70
2022-08-10T11:06:45.115Z,100615.63
2022-08-10T11:08:02.981Z,100589.73
2022-08-10T11:09:11.496Z,100603.12
2022-08-10T11:10:32.543Z,100608.30
2022-08-10T11:12:01.471Z,100607.99
2022-08-10T11:14:29.745Z,100589.72
2022-08-10T11:15:42.828Z,100606.56
2022-08-10T11:16:57.329Z,100598.05
2022-08-10T11:18:02.700Z,100597.58
2022-08-10T11:19:17.843Z,100597.95
2022-08-10T11:20:25.626Z,100585.11
2022-08-10T11:21:46.656Z,100537.40
2022-08-10T11:23:10.888Z,100599.47
2022-08-10T11:24:47.431Z,100591.72
2022-08-10T11:25:59.727Z,100614.03
2022-08-10T11:27:11.893Z,100598.06
2022-08-10T11:28:25.540Z,100619.52
2022-08-10T11:29:34.655Z,100604.98
2022-08-10T11:30:47.137Z,100610.13
2022-08-10T11:31:59.271Z,100606.59
2022-08-10T11:33:05.272Z,100607.14
2022-08-10T11:34:47.002Z,100607.44
2022-08-10T11:35:57.108Z,100599.75
2022-08-10T11:37:10.509Z,100610.86
2022-08-10T11:38:39.833Z,100599.89
2022-08-10T11:39:48.892Z,100602.91
2022-08-10T11:40:59.204Z,100602.33
2022-08-10T11:42:16.116Z,100596.33
2022-08-10T11:43:22.127Z,100592.50
2022-08-10T11:44:46.815Z,100591.42
2022-08-10T11:45:55.479Z,100591.34
2022-08-10T11:47:12.997Z,100590.50
2022-08-10T11:48:53.414Z,100596.78
2022-08-10T11:49:39.083Z,100596.07
2022-08-10T11:52:10.182Z,100590.77
2022-08-10T11:53:24.774Z,100598.55
2022-08-10T11:54:36.777Z,100603.39
2022-08-10T11:55:41.825Z,100589.72
2022-08-10T11:56:47.774Z,100593.81
2022-08-10T11:57:55.886Z,100600.34
2022-08-10T11:58:59.049Z,100598.16
2022-08-10T12:00:01.452Z,100588.97
2022-08-10T12:01:06.931Z,100588.77
2022-08-10T12:02:12.545Z,100594.69
2022-08-10T12:03:16.693Z,100597.63
2022-08-10T12:04:21.512Z,100591.11
2022-08-10T12:05:53.122Z,100588.45
2022-08-10T12:06:55.343Z,100581.49
2022-08-10T12:10:03.550Z,100588.17
2022-08-10T12:10:03.973Z,100594.22
2022-08-10T12:10:12.948Z,100588.34
2022-08-10T12:11:12.732Z,100584.80
2022-08-10T12:12:17.454Z,100579.47
2022-08-10T12:13:26.481Z,100572.70
2022-08-10T12:14:32.332Z,100572.70
2022-08-10T12:15:47.444Z,100578.43
2022-08-10T12:16:53.694Z,100579.70
2022-08-10T12:17:59.706Z,100567.30
2022-08-10T12:20:30.885Z,100570.19
2022-08-10T12:21:48.921Z,100581.49
2022-08-10T12:23:13.007Z,100577.11
2022-08-10T12:24:22.024Z,100583.08
2022-08-10T12:25:56.696Z,100588.36
2022-08-10T12:27:13.241Z,100587.29
2022-08-10T12:28:51.171Z,100590.83
2022-08-10T12:31:12.837Z,100585.10
2022-08-10T12:32:40.719Z,100590.16
2022-08-10T12:36:17.446Z,100584.23
2022-08-10T12:37:07.569Z,100581.69
2022-08-10T12:38:16.379Z,100579.82
2022-08-10T12:39:28.510Z,100584.36
2022-08-10T12:40:36.347Z,100581.88
2022-08-10T12:41:50.775Z,100577.66
2022-08-10T12:44:07.666Z,100579.98
2022-08-10T12:44:41.066Z,100579.14
2022-08-10T12:45:47.539Z,100583.09
2022-08-10T12:46:56.520Z,100577.80
2022-08-10T12:48:05.021Z,100576.80
2022-08-10T12:49:10.887Z,100584.44
2022-08-10T12:50:33.494Z,100564.11
2022-08-10T12:51:27.774Z,100575.11
2022-08-10T12:52:39.680Z,100576.69
2022-08-10T12:53:48.888Z,100574.19
2022-08-10T12:54:54.848Z,100578.91
2022-08-10T12:55:57.861Z,100576.36
2022-08-10T12:57:07.035Z,100579.73
2022-08-10T12:58:57.339Z,100578.53
2022-08-10T12:59:21.152Z,100572.87
2022-08-10T13:00:29.883Z,100580.67
2022-08-10T13:02:06.162Z,100575.11
2022-08-10T13:02:47.997Z,100571.55
2022-08-10T13:04:22.511Z,100574.65
2022-08-10T13:04:56.005Z,100576.14
2022-08-10T13:06:02.972Z,100570.95
2022-08-10T13:07:09.917Z,100572.32
2022-08-10T13:08:27.057Z,100575.73
2022-08-10T13:09:24.717Z,100573.19
2022-08-10T13:10:30.363Z,100564.89
2022-08-10T13:12:36.062Z,100571.91
2022-08-10T13:12:44.447Z,100565.34
2022-08-10T13:13:49.357Z,100569.87
2022-08-10T13:14:58.357Z,100571.11
2022-08-10T13:16:03.774Z,100571.80
2022-08-10T13:17:07.568Z,100574.95
2022-08-10T13:18:17.883Z,100571.88
2022-08-10T13:19:20.152Z,100574.65
2022-08-10T13:20:33.319Z,100576.88
2022-08-10T13:21:38.028Z,100571.11
2022-08-10T13:22:42.533Z,100573.59
2022-08-10T13:24:04.356Z,100579.73
2022-08-10T13:25:02.034Z,100581.45
2022-08-10T13:26:07.755Z,100576.52
2022-08-10T13:27:26.134Z,100570.73
2022-08-10T13:28:39.861Z,100579.21